In Rescue
 
Open Full Screen Window  High Contrast Mode
Wind Gusting 00 knots
04
November 20, 2019 2:20 AM CST
Weather Information
Wind Direction
  120 °
Wind Speed
  04 kt (5 mph)
Wind Gust
  00 kt (0 mph)
Altimeter
29.97 in
Visibility
10 SM
Temperature
01° C
34° F
Dewpoint
-01° C
30° F
Humidity
87%
1hr Rain Fall
00.00 in.
24hr Rain Fall
00.00 in.
Sky Condition
Broken @ 9,000 ft
VFR

METAR KCNB 200820Z AUTO 12004KT 10SM BKN090 01/M01 A2997 RMK AO2

FAA Disclaimer: The data displayed is for advisory purposes only and is not to be used for flight planning or operations.